sensor_id;sensor_type;location;lat;lon;timestamp;P1;durP1;ratioP1;P2;durP2;ratioP2
52186;SDS011;38161;53.020;6.598;2022-08-19T00:00:34;6.53;;;3.88;;
52186;SDS011;38161;53.020;6.598;2022-08-19T00:03:04;5.35;;;4.07;;
52186;SDS011;38161;53.020;6.598;2022-08-19T00:05:30;6.25;;;3.63;;
52186;SDS011;38161;53.020;6.598;2022-08-19T00:07:56;5.75;;;3.95;;
52186;SDS011;38161;53.020;6.598;2022-08-19T00:10:22;5.15;;;4.07;;
52186;SDS011;38161;53.020;6.598;2022-08-19T00:12:49;5.18;;;3.60;;
52186;SDS011;38161;53.020;6.598;2022-08-19T00:15:17;6.50;;;3.95;;
52186;SDS011;38161;53.020;6.598;2022-08-19T00:17:44;6.15;;;4.00;;
52186;SDS011;38161;53.020;6.598;2022-08-19T00:20:12;8.68;;;4.45;;
52186;SDS011;38161;53.020;6.598;2022-08-19T00:22:42;5.03;;;3.63;;
52186;SDS011;38161;53.020;6.598;2022-08-19T00:25:09;6.10;;;4.10;;
52186;SDS011;38161;53.020;6.598;2022-08-19T00:30:02;4.53;;;3.17;;
52186;SDS011;38161;53.020;6.598;2022-08-19T00:32:29;5.13;;;3.30;;
52186;SDS011;38161;53.020;6.598;2022-08-19T00:34:55;5.60;;;4.13;;
52186;SDS011;38161;53.020;6.598;2022-08-19T00:37:22;5.75;;;3.58;;
52186;SDS011;38161;53.020;6.598;2022-08-19T00:39:49;5.82;;;3.55;;
52186;SDS011;38161;53.020;6.598;2022-08-19T00:42:16;5.20;;;3.60;;
52186;SDS011;38161;53.020;6.598;2022-08-19T00:44:42;7.20;;;3.92;;
52186;SDS011;38161;53.020;6.598;2022-08-19T00:47:08;6.68;;;4.25;;
52186;SDS011;38161;53.020;6.598;2022-08-19T00:49:35;7.40;;;4.30;;
52186;SDS011;38161;53.020;6.598;2022-08-19T00:52:07;7.47;;;3.80;;
52186;SDS011;38161;53.020;6.598;2022-08-19T00:54:52;5.20;;;4.00;;
52186;SDS011;38161;53.020;6.598;2022-08-19T00:57:19;6.05;;;4.35;;
52186;SDS011;38161;53.020;6.598;2022-08-19T00:59:52;5.78;;;4.47;;
52186;SDS011;38161;53.020;6.598;2022-08-19T01:02:20;7.28;;;4.22;;
52186;SDS011;38161;53.020;6.598;2022-08-19T01:04:46;6.40;;;4.03;;
52186;SDS011;38161;53.020;6.598;2022-08-19T01:07:12;6.85;;;4.78;;
52186;SDS011;38161;53.020;6.598;2022-08-19T01:09:38;7.07;;;5.55;;
52186;SDS011;38161;53.020;6.598;2022-08-19T01:12:03;10.23;;;5.85;;
52186;SDS011;38161;53.020;6.598;2022-08-19T01:14:29;6.63;;;4.88;;
52186;SDS011;38161;53.020;6.598;2022-08-19T01:16:56;6.15;;;4.65;;
52186;SDS011;38161;53.020;6.598;2022-08-19T01:19:33;6.70;;;4.95;;
52186;SDS011;38161;53.020;6.598;2022-08-19T01:22:08;7.68;;;5.43;;
52186;SDS011;38161;53.020;6.598;2022-08-19T01:24:35;9.23;;;5.20;;
52186;SDS011;38161;53.020;6.598;2022-08-19T01:27:03;7.10;;;5.47;;
52186;SDS011;38161;53.020;6.598;2022-08-19T01:29:30;8.00;;;5.13;;
52186;SDS011;38161;53.020;6.598;2022-08-19T01:31:57;6.22;;;4.63;;
52186;SDS011;38161;53.020;6.598;2022-08-19T01:34:24;6.55;;;3.97;;
52186;SDS011;38161;53.020;6.598;2022-08-19T01:36:50;6.53;;;4.50;;
52186;SDS011;38161;53.020;6.598;2022-08-19T01:39:17;6.00;;;4.15;;
52186;SDS011;38161;53.020;6.598;2022-08-19T01:41:46;5.82;;;4.40;;
52186;SDS011;38161;53.020;6.598;2022-08-19T01:44:12;6.07;;;4.55;;
52186;SDS011;38161;53.020;6.598;2022-08-19T01:49:05;6.40;;;3.83;;
52186;SDS011;38161;53.020;6.598;2022-08-19T01:53:57;8.10;;;4.80;;
52186;SDS011;38161;53.020;6.598;2022-08-19T01:56:23;6.13;;;4.20;;
52186;SDS011;38161;53.020;6.598;2022-08-19T01:58:54;6.15;;;4.53;;
52186;SDS011;38161;53.020;6.598;2022-08-19T02:01:23;5.38;;;4.20;;
52186;SDS011;38161;53.020;6.598;2022-08-19T02:03:48;6.10;;;4.63;;
52186;SDS011;38161;53.020;6.598;2022-08-19T02:06:14;6.15;;;4.60;;
52186;SDS011;38161;53.020;6.598;2022-08-19T02:08:42;7.88;;;4.93;;
52186;SDS011;38161;53.020;6.598;2022-08-19T02:11:17;6.53;;;4.35;;
52186;SDS011;38161;53.020;6.598;2022-08-19T02:13:45;6.60;;;4.28;;
52186;SDS011;38161;53.020;6.598;2022-08-19T02:16:11;4.82;;;3.83;;
52186;SDS011;38161;53.020;6.598;2022-08-19T02:18:36;4.55;;;3.50;;
52186;SDS011;38161;53.020;6.598;2022-08-19T02:21:02;5.22;;;3.55;;
52186;SDS011;38161;53.020;6.598;2022-08-19T02:23:28;7.55;;;3.63;;
52186;SDS011;38161;53.020;6.598;2022-08-19T02:25:54;4.80;;;3.42;;
52186;SDS011;38161;53.020;6.598;2022-08-19T02:28:20;5.68;;;3.42;;
52186;SDS011;38161;53.020;6.598;2022-08-19T02:30:46;4.95;;;3.20;;
52186;SDS011;38161;53.020;6.598;2022-08-19T02:33:13;4.13;;;2.78;;
52186;SDS011;38161;53.020;6.598;2022-08-19T02:35:42;4.60;;;2.85;;
52186;SDS011;38161;53.020;6.598;2022-08-19T02:38:12;3.80;;;2.60;;
52186;SDS011;38161;53.020;6.598;2022-08-19T02:40:55;4.53;;;2.83;;
52186;SDS011;38161;53.020;6.598;2022-08-19T02:43:23;4.25;;;3.00;;
52186;SDS011;38161;53.020;6.598;2022-08-19T02:48:16;5.53;;;3.45;;
52186;SDS011;38161;53.020;6.598;2022-08-19T02:50:47;6.30;;;3.78;;
52186;SDS011;38161;53.020;6.598;2022-08-19T02:53:19;5.00;;;3.65;;
52186;SDS011;38161;53.020;6.598;2022-08-19T02:55:49;7.07;;;5.18;;
52186;SDS011;38161;53.020;6.598;2022-08-19T02:58:16;6.20;;;4.30;;
52186;SDS011;38161;53.020;6.598;2022-08-19T03:00:43;7.53;;;5.38;;
52186;SDS011;38161;53.020;6.598;2022-08-19T03:03:11;9.13;;;4.03;;
52186;SDS011;38161;53.020;6.598;2022-08-19T03:05:37;7.10;;;4.30;;
52186;SDS011;38161;53.020;6.598;2022-08-19T03:08:03;10.38;;;4.70;;
52186;SDS011;38161;53.020;6.598;2022-08-19T03:10:30;5.47;;;4.32;;
52186;SDS011;38161;53.020;6.598;2022-08-19T03:12:57;6.28;;;4.20;;
52186;SDS011;38161;53.020;6.598;2022-08-19T03:15:23;5.78;;;4.47;;
52186;SDS011;38161;53.020;6.598;2022-08-19T03:17:49;5.72;;;4.38;;
52186;SDS011;38161;53.020;6.598;2022-08-19T03:20:15;6.40;;;4.10;;
52186;SDS011;38161;53.020;6.598;2022-08-19T03:22:40;5.78;;;4.53;;
52186;SDS011;38161;53.020;6.598;2022-08-19T03:25:06;7.93;;;5.07;;
52186;SDS011;38161;53.020;6.598;2022-08-19T03:27:32;6.68;;;4.85;;
52186;SDS011;38161;53.020;6.598;2022-08-19T03:29:58;6.13;;;4.65;;
52186;SDS011;38161;53.020;6.598;2022-08-19T03:32:24;6.57;;;4.82;;
52186;SDS011;38161;53.020;6.598;2022-08-19T03:34:50;6.30;;;4.30;;
52186;SDS011;38161;53.020;6.598;2022-08-19T03:37:17;6.43;;;4.75;;
52186;SDS011;38161;53.020;6.598;2022-08-19T03:39:44;6.90;;;4.82;;
52186;SDS011;38161;53.020;6.598;2022-08-19T03:42:10;9.43;;;5.15;;
52186;SDS011;38161;53.020;6.598;2022-08-19T03:44:37;7.20;;;4.75;;
52186;SDS011;38161;53.020;6.598;2022-08-19T03:47:03;6.07;;;4.45;;
52186;SDS011;38161;53.020;6.598;2022-08-19T03:49:31;7.60;;;5.10;;
52186;SDS011;38161;53.020;6.598;2022-08-19T03:52:00;6.30;;;4.72;;
52186;SDS011;38161;53.020;6.598;2022-08-19T03:54:26;6.40;;;4.90;;
52186;SDS011;38161;53.020;6.598;2022-08-19T03:56:53;5.80;;;4.10;;
52186;SDS011;38161;53.020;6.598;2022-08-19T03:59:23;9.88;;;3.97;;
52186;SDS011;38161;53.020;6.598;2022-08-19T04:01:54;6.45;;;3.30;;
52186;SDS011;38161;53.020;6.598;2022-08-19T04:04:22;7.25;;;3.97;;
52186;SDS011;38161;53.020;6.598;2022-08-19T04:06:48;5.45;;;3.20;;
52186;SDS011;38161;53.020;6.598;2022-08-19T04:09:15;8.05;;;4.03;;
52186;SDS011;38161;53.020;6.598;2022-08-19T04:11:43;5.78;;;4.13;;
52186;SDS011;38161;53.020;6.598;2022-08-19T04:14:12;6.72;;;4.30;;
52186;SDS011;38161;53.020;6.598;2022-08-19T04:16:43;6.18;;;4.00;;
52186;SDS011;38161;53.020;6.598;2022-08-19T04:21:36;6.80;;;3.70;;
52186;SDS011;38161;53.020;6.598;2022-08-19T04:24:02;6.40;;;4.50;;
52186;SDS011;38161;53.020;6.598;2022-08-19T04:26:30;7.30;;;4.20;;
52186;SDS011;38161;53.020;6.598;2022-08-19T04:28:59;8.77;;;4.85;;
52186;SDS011;38161;53.020;6.598;2022-08-19T04:31:28;6.70;;;4.60;;
52186;SDS011;38161;53.020;6.598;2022-08-19T04:33:56;7.20;;;4.53;;
52186;SDS011;38161;53.020;6.598;2022-08-19T04:36:30;7.07;;;4.53;;
52186;SDS011;38161;53.020;6.598;2022-08-19T04:38:58;6.85;;;5.03;;
52186;SDS011;38161;53.020;6.598;2022-08-19T04:41:29;18.80;;;5.28;;
52186;SDS011;38161;53.020;6.598;2022-08-19T04:44:14;11.88;;;6.00;;
52186;SDS011;38161;53.020;6.598;2022-08-19T04:46:43;8.10;;;5.40;;
52186;SDS011;38161;53.020;6.598;2022-08-19T04:49:14;8.35;;;5.55;;
52186;SDS011;38161;53.020;6.598;2022-08-19T04:51:42;7.60;;;5.18;;
52186;SDS011;38161;53.020;6.598;2022-08-19T04:54:09;8.85;;;6.10;;
52186;SDS011;38161;53.020;6.598;2022-08-19T04:56:35;9.30;;;6.32;;
52186;SDS011;38161;53.020;6.598;2022-08-19T04:59:01;9.70;;;6.57;;
52186;SDS011;38161;53.020;6.598;2022-08-19T05:01:30;8.80;;;6.38;;
52186;SDS011;38161;53.020;6.598;2022-08-19T05:03:58;9.65;;;6.05;;
52186;SDS011;38161;53.020;6.598;2022-08-19T05:06:26;10.65;;;5.88;;
52186;SDS011;38161;53.020;6.598;2022-08-19T05:08:53;9.50;;;6.45;;
52186;SDS011;38161;53.020;6.598;2022-08-19T05:11:20;10.27;;;5.53;;
52186;SDS011;38161;53.020;6.598;2022-08-19T05:13:48;8.63;;;6.03;;
52186;SDS011;38161;53.020;6.598;2022-08-19T05:16:15;14.13;;;6.50;;
52186;SDS011;38161;53.020;6.598;2022-08-19T05:18:42;9.93;;;6.47;;
52186;SDS011;38161;53.020;6.598;2022-08-19T05:21:27;10.40;;;5.97;;
52186;SDS011;38161;53.020;6.598;2022-08-19T05:24:12;9.68;;;6.28;;
52186;SDS011;38161;53.020;6.598;2022-08-19T05:26:40;10.80;;;5.90;;
52186;SDS011;38161;53.020;6.598;2022-08-19T05:29:11;8.93;;;6.13;;
52186;SDS011;38161;53.020;6.598;2022-08-19T05:31:39;6.53;;;4.57;;
52186;SDS011;38161;53.020;6.598;2022-08-19T05:34:05;9.98;;;6.15;;
52186;SDS011;38161;53.020;6.598;2022-08-19T05:39:11;8.60;;;5.15;;
52186;SDS011;38161;53.020;6.598;2022-08-19T05:41:43;8.32;;;5.22;;
52186;SDS011;38161;53.020;6.598;2022-08-19T05:44:09;10.02;;;5.90;;
52186;SDS011;38161;53.020;6.598;2022-08-19T05:46:36;8.40;;;5.75;;
52186;SDS011;38161;53.020;6.598;2022-08-19T05:49:03;10.48;;;5.88;;
52186;SDS011;38161;53.020;6.598;2022-08-19T05:51:30;11.60;;;8.18;;
52186;SDS011;38161;53.020;6.598;2022-08-19T05:53:57;15.75;;;9.40;;
52186;SDS011;38161;53.020;6.598;2022-08-19T05:56:23;14.32;;;10.15;;
52186;SDS011;38161;53.020;6.598;2022-08-19T06:01:16;15.50;;;11.07;;
52186;SDS011;38161;53.020;6.598;2022-08-19T06:03:43;17.50;;;12.55;;
52186;SDS011;38161;53.020;6.598;2022-08-19T06:06:11;21.50;;;14.07;;
52186;SDS011;38161;53.020;6.598;2022-08-19T06:08:40;18.92;;;13.13;;
52186;SDS011;38161;53.020;6.598;2022-08-19T06:13:45;19.98;;;13.63;;
52186;SDS011;38161;53.020;6.598;2022-08-19T06:16:16;26.65;;;15.07;;
52186;SDS011;38161;53.020;6.598;2022-08-19T06:18:52;19.20;;;14.02;;
52186;SDS011;38161;53.020;6.598;2022-08-19T06:21:19;20.05;;;13.73;;
52186;SDS011;38161;53.020;6.598;2022-08-19T06:23:49;18.33;;;13.35;;
52186;SDS011;38161;53.020;6.598;2022-08-19T06:26:16;19.08;;;13.88;;
52186;SDS011;38161;53.020;6.598;2022-08-19T06:28:43;23.08;;;13.80;;
52186;SDS011;38161;53.020;6.598;2022-08-19T06:31:15;16.77;;;12.88;;
52186;SDS011;38161;53.020;6.598;2022-08-19T06:33:46;19.73;;;12.90;;
52186;SDS011;38161;53.020;6.598;2022-08-19T06:36:24;20.65;;;13.75;;
52186;SDS011;38161;53.020;6.598;2022-08-19T06:38:59;18.65;;;13.23;;
52186;SDS011;38161;53.020;6.598;2022-08-19T06:41:40;20.40;;;13.02;;
52186;SDS011;38161;53.020;6.598;2022-08-19T06:44:08;17.10;;;11.85;;
52186;SDS011;38161;53.020;6.598;2022-08-19T06:46:35;20.38;;;13.32;;
52186;SDS011;38161;53.020;6.598;2022-08-19T06:49:01;16.95;;;12.13;;
52186;SDS011;38161;53.020;6.598;2022-08-19T06:51:27;19.00;;;12.98;;
52186;SDS011;38161;53.020;6.598;2022-08-19T06:53:54;20.10;;;13.02;;
52186;SDS011;38161;53.020;6.598;2022-08-19T06:56:22;15.98;;;12.52;;
52186;SDS011;38161;53.020;6.598;2022-08-19T06:58:51;18.02;;;12.30;;
52186;SDS011;38161;53.020;6.598;2022-08-19T07:01:18;18.08;;;12.50;;
52186;SDS011;38161;53.020;6.598;2022-08-19T07:03:45;18.88;;;12.70;;
52186;SDS011;38161;53.020;6.598;2022-08-19T07:06:13;15.52;;;11.35;;
52186;SDS011;38161;53.020;6.598;2022-08-19T07:08:42;15.23;;;11.13;;
52186;SDS011;38161;53.020;6.598;2022-08-19T07:11:12;17.23;;;12.15;;
52186;SDS011;38161;53.020;6.598;2022-08-19T07:13:40;18.25;;;11.07;;
52186;SDS011;38161;53.020;6.598;2022-08-19T07:16:10;18.27;;;12.18;;
52186;SDS011;38161;53.020;6.598;2022-08-19T07:18:38;16.85;;;11.77;;
52186;SDS011;38161;53.020;6.598;2022-08-19T07:23:32;17.10;;;11.38;;
52186;SDS011;38161;53.020;6.598;2022-08-19T07:25:58;15.85;;;10.68;;
52186;SDS011;38161;53.020;6.598;2022-08-19T07:28:33;15.18;;;11.00;;
52186;SDS011;38161;53.020;6.598;2022-08-19T07:30:58;15.93;;;10.60;;
52186;SDS011;38161;53.020;6.598;2022-08-19T07:33:26;14.75;;;11.50;;
52186;SDS011;38161;53.020;6.598;2022-08-19T07:35:52;18.33;;;12.90;;
52186;SDS011;38161;53.020;6.598;2022-08-19T07:38:20;17.52;;;12.02;;
52186;SDS011;38161;53.020;6.598;2022-08-19T07:40:46;14.48;;;10.60;;
52186;SDS011;38161;53.020;6.598;2022-08-19T07:43:11;17.35;;;11.20;;
52186;SDS011;38161;53.020;6.598;2022-08-19T07:45:37;13.88;;;10.48;;
52186;SDS011;38161;53.020;6.598;2022-08-19T07:48:03;14.23;;;9.85;;
52186;SDS011;38161;53.020;6.598;2022-08-19T07:50:29;15.00;;;11.68;;
52186;SDS011;38161;53.020;6.598;2022-08-19T07:52:54;15.13;;;11.30;;
52186;SDS011;38161;53.020;6.598;2022-08-19T07:55:22;15.27;;;10.23;;
52186;SDS011;38161;53.020;6.598;2022-08-19T07:57:50;13.45;;;9.57;;
52186;SDS011;38161;53.020;6.598;2022-08-19T08:00:17;14.30;;;9.75;;
52186;SDS011;38161;53.020;6.598;2022-08-19T08:02:43;14.57;;;10.63;;
52186;SDS011;38161;53.020;6.598;2022-08-19T08:05:09;13.38;;;10.02;;
52186;SDS011;38161;53.020;6.598;2022-08-19T08:07:54;13.82;;;10.75;;
52186;SDS011;38161;53.020;6.598;2022-08-19T08:10:38;14.10;;;10.30;;
52186;SDS011;38161;53.020;6.598;2022-08-19T08:13:05;13.70;;;9.88;;
52186;SDS011;38161;53.020;6.598;2022-08-19T08:15:31;13.95;;;9.15;;
52186;SDS011;38161;53.020;6.598;2022-08-19T08:17:56;11.00;;;8.85;;
52186;SDS011;38161;53.020;6.598;2022-08-19T08:20:23;12.45;;;8.90;;
52186;SDS011;38161;53.020;6.598;2022-08-19T08:25:34;15.27;;;9.27;;
52186;SDS011;38161;53.020;6.598;2022-08-19T08:28:01;15.82;;;9.88;;
52186;SDS011;38161;53.020;6.598;2022-08-19T08:30:28;14.77;;;11.30;;
52186;SDS011;38161;53.020;6.598;2022-08-19T08:32:55;14.25;;;10.25;;
52186;SDS011;38161;53.020;6.598;2022-08-19T08:35:22;14.10;;;10.43;;
52186;SDS011;38161;53.020;6.598;2022-08-19T08:37:49;12.95;;;9.43;;
52186;SDS011;38161;53.020;6.598;2022-08-19T08:40:19;12.40;;;9.52;;
52186;SDS011;38161;53.020;6.598;2022-08-19T08:43:03;12.85;;;9.90;;
52186;SDS011;38161;53.020;6.598;2022-08-19T08:45:55;12.63;;;8.90;;
52186;SDS011;38161;53.020;6.598;2022-08-19T08:50:57;13.70;;;9.85;;
52186;SDS011;38161;53.020;6.598;2022-08-19T08:53:25;13.43;;;9.52;;
52186;SDS011;38161;53.020;6.598;2022-08-19T08:55:51;14.18;;;10.30;;
52186;SDS011;38161;53.020;6.598;2022-08-19T08:58:24;12.88;;;9.18;;
52186;SDS011;38161;53.020;6.598;2022-08-19T09:00:54;13.23;;;8.88;;
52186;SDS011;38161;53.020;6.598;2022-08-19T09:03:23;9.50;;;7.70;;
52186;SDS011;38161;53.020;6.598;2022-08-19T09:11:33;11.05;;;7.82;;
52186;SDS011;38161;53.020;6.598;2022-08-19T09:14:32;11.10;;;7.70;;
52186;SDS011;38161;53.020;6.598;2022-08-19T09:17:10;10.88;;;7.07;;
52186;SDS011;38161;53.020;6.598;2022-08-19T09:19:51;9.50;;;6.57;;
52186;SDS011;38161;53.020;6.598;2022-08-19T09:22:17;11.85;;;7.78;;
52186;SDS011;38161;53.020;6.598;2022-08-19T09:24:46;9.43;;;7.10;;
52186;SDS011;38161;53.020;6.598;2022-08-19T09:27:13;12.40;;;7.20;;
52186;SDS011;38161;53.020;6.598;2022-08-19T09:29:39;8.80;;;7.32;;
52186;SDS011;38161;53.020;6.598;2022-08-19T09:32:05;9.40;;;7.30;;
52186;SDS011;38161;53.020;6.598;2022-08-19T09:34:31;8.10;;;7.13;;
52186;SDS011;38161;53.020;6.598;2022-08-19T09:36:57;8.52;;;7.05;;
52186;SDS011;38161;53.020;6.598;2022-08-19T09:39:25;8.15;;;6.40;;
52186;SDS011;38161;53.020;6.598;2022-08-19T09:41:50;10.70;;;7.18;;
52186;SDS011;38161;53.020;6.598;2022-08-19T09:44:18;8.45;;;6.93;;
52186;SDS011;38161;53.020;6.598;2022-08-19T09:46:45;9.73;;;7.80;;
52186;SDS011;38161;53.020;6.598;2022-08-19T09:49:15;8.20;;;6.72;;
52186;SDS011;38161;53.020;6.598;2022-08-19T09:51:42;8.85;;;6.90;;
52186;SDS011;38161;53.020;6.598;2022-08-19T09:54:08;9.13;;;7.05;;
52186;SDS011;38161;53.020;6.598;2022-08-19T09:56:34;9.40;;;8.38;;
52186;SDS011;38161;53.020;6.598;2022-08-19T09:59:00;10.40;;;7.57;;
52186;SDS011;38161;53.020;6.598;2022-08-19T10:01:29;8.73;;;7.40;;
52186;SDS011;38161;53.020;6.598;2022-08-19T10:03:56;11.35;;;8.02;;
52186;SDS011;38161;53.020;6.598;2022-08-19T10:06:24;9.02;;;7.75;;
52186;SDS011;38161;53.020;6.598;2022-08-19T10:08:54;8.75;;;6.60;;
52186;SDS011;38161;53.020;6.598;2022-08-19T10:11:20;8.02;;;6.15;;
52186;SDS011;38161;53.020;6.598;2022-08-19T10:16:16;8.63;;;7.22;;
52186;SDS011;38161;53.020;6.598;2022-08-19T10:18:47;8.73;;;7.72;;
52186;SDS011;38161;53.020;6.598;2022-08-19T10:21:14;10.55;;;7.13;;
52186;SDS011;38161;53.020;6.598;2022-08-19T10:23:43;10.68;;;7.53;;
52186;SDS011;38161;53.020;6.598;2022-08-19T10:26:15;10.50;;;8.20;;
52186;SDS011;38161;53.020;6.598;2022-08-19T10:28:43;10.25;;;8.05;;
52186;SDS011;38161;53.020;6.598;2022-08-19T10:31:14;8.60;;;7.28;;
52186;SDS011;38161;53.020;6.598;2022-08-19T10:33:42;11.35;;;7.50;;
52186;SDS011;38161;53.020;6.598;2022-08-19T10:36:13;8.43;;;7.28;;
52186;SDS011;38161;53.020;6.598;2022-08-19T10:38:43;10.38;;;7.13;;
52186;SDS011;38161;53.020;6.598;2022-08-19T10:41:11;9.20;;;7.03;;
52186;SDS011;38161;53.020;6.598;2022-08-19T10:43:39;9.80;;;7.07;;
52186;SDS011;38161;53.020;6.598;2022-08-19T10:46:06;13.50;;;8.43;;
52186;SDS011;38161;53.020;6.598;2022-08-19T10:48:34;12.65;;;7.03;;
52186;SDS011;38161;53.020;6.598;2022-08-19T10:51:00;8.95;;;7.30;;
52186;SDS011;38161;53.020;6.598;2022-08-19T10:53:45;8.80;;;7.05;;
52186;SDS011;38161;53.020;6.598;2022-08-19T10:56:10;9.38;;;7.80;;
52186;SDS011;38161;53.020;6.598;2022-08-19T10:58:55;10.15;;;8.40;;
52186;SDS011;38161;53.020;6.598;2022-08-19T11:01:22;9.45;;;7.18;;
52186;SDS011;38161;53.020;6.598;2022-08-19T11:03:47;11.77;;;7.85;;
52186;SDS011;38161;53.020;6.598;2022-08-19T11:06:13;8.77;;;7.15;;
52186;SDS011;38161;53.020;6.598;2022-08-19T11:08:39;10.18;;;7.90;;
52186;SDS011;38161;53.020;6.598;2022-08-19T11:11:05;9.93;;;7.97;;
52186;SDS011;38161;53.020;6.598;2022-08-19T11:13:33;9.43;;;7.95;;
52186;SDS011;38161;53.020;6.598;2022-08-19T11:16:09;10.18;;;7.82;;
52186;SDS011;38161;53.020;6.598;2022-08-19T11:18:45;9.90;;;7.80;;
52186;SDS011;38161;53.020;6.598;2022-08-19T11:23:46;10.40;;;7.93;;
52186;SDS011;38161;53.020;6.598;2022-08-19T11:26:13;10.05;;;8.48;;
52186;SDS011;38161;53.020;6.598;2022-08-19T11:28:40;10.35;;;8.85;;
52186;SDS011;38161;53.020;6.598;2022-08-19T11:31:10;12.43;;;10.20;;
52186;SDS011;38161;53.020;6.598;2022-08-19T11:33:40;12.40;;;9.70;;
52186;SDS011;38161;53.020;6.598;2022-08-19T11:38:32;10.43;;;8.85;;
52186;SDS011;38161;53.020;6.598;2022-08-19T11:41:01;9.73;;;8.27;;
52186;SDS011;38161;53.020;6.598;2022-08-19T11:43:31;12.05;;;9.43;;
52186;SDS011;38161;53.020;6.598;2022-08-19T11:45:58;14.57;;;10.63;;
52186;SDS011;38161;53.020;6.598;2022-08-19T11:48:24;10.63;;;9.52;;
52186;SDS011;38161;53.020;6.598;2022-08-19T11:50:53;11.18;;;9.48;;
52186;SDS011;38161;53.020;6.598;2022-08-19T11:53:21;13.55;;;9.85;;
52186;SDS011;38161;53.020;6.598;2022-08-19T11:55:48;12.02;;;9.60;;
52186;SDS011;38161;53.020;6.598;2022-08-19T11:58:15;11.35;;;9.48;;
52186;SDS011;38161;53.020;6.598;2022-08-19T12:00:42;10.20;;;9.10;;
52186;SDS011;38161;53.020;6.598;2022-08-19T12:03:10;11.00;;;9.77;;
52186;SDS011;38161;53.020;6.598;2022-08-19T12:05:37;10.68;;;9.57;;
52186;SDS011;38161;53.020;6.598;2022-08-19T12:08:05;11.32;;;9.60;;
52186;SDS011;38161;53.020;6.598;2022-08-19T12:10:31;10.27;;;9.18;;
52186;SDS011;38161;53.020;6.598;2022-08-19T12:12:58;12.15;;;10.25;;
52186;SDS011;38161;53.020;6.598;2022-08-19T12:15:25;12.23;;;9.27;;
52186;SDS011;38161;53.020;6.598;2022-08-19T12:17:53;10.95;;;9.35;;
52186;SDS011;38161;53.020;6.598;2022-08-19T12:20:21;11.43;;;9.77;;
52186;SDS011;38161;53.020;6.598;2022-08-19T12:22:48;12.68;;;10.00;;
52186;SDS011;38161;53.020;6.598;2022-08-19T12:27:40;9.65;;;8.35;;
52186;SDS011;38161;53.020;6.598;2022-08-19T12:30:06;9.45;;;8.45;;
52186;SDS011;38161;53.020;6.598;2022-08-19T12:32:34;9.02;;;8.13;;
52186;SDS011;38161;53.020;6.598;2022-08-19T12:37:26;9.05;;;8.02;;
52186;SDS011;38161;53.020;6.598;2022-08-19T12:42:17;11.10;;;7.35;;
52186;SDS011;38161;53.020;6.598;2022-08-19T12:47:10;6.97;;;5.68;;
52186;SDS011;38161;53.020;6.598;2022-08-19T12:49:38;8.35;;;6.50;;
52186;SDS011;38161;53.020;6.598;2022-08-19T12:52:06;5.72;;;4.47;;
52186;SDS011;38161;53.020;6.598;2022-08-19T12:54:33;5.82;;;5.20;;
52186;SDS011;38161;53.020;6.598;2022-08-19T12:57:00;6.07;;;4.45;;
52186;SDS011;38161;53.020;6.598;2022-08-19T12:59:33;5.90;;;4.68;;
52186;SDS011;38161;53.020;6.598;2022-08-19T13:02:02;7.38;;;5.65;;
52186;SDS011;38161;53.020;6.598;2022-08-19T13:04:32;7.75;;;5.50;;
52186;SDS011;38161;53.020;6.598;2022-08-19T13:07:05;7.65;;;5.50;;
52186;SDS011;38161;53.020;6.598;2022-08-19T13:09:33;6.55;;;5.85;;
52186;SDS011;38161;53.020;6.598;2022-08-19T13:14:28;7.90;;;5.80;;
52186;SDS011;38161;53.020;6.598;2022-08-19T13:16:55;9.45;;;6.18;;
52186;SDS011;38161;53.020;6.598;2022-08-19T13:19:22;7.90;;;5.72;;
52186;SDS011;38161;53.020;6.598;2022-08-19T13:21:50;7.00;;;5.40;;
52186;SDS011;38161;53.020;6.598;2022-08-19T13:24:16;7.32;;;6.28;;
52186;SDS011;38161;53.020;6.598;2022-08-19T13:26:42;7.15;;;6.13;;
52186;SDS011;38161;53.020;6.598;2022-08-19T13:29:08;7.85;;;6.78;;
52186;SDS011;38161;53.020;6.598;2022-08-19T13:31:52;8.60;;;6.68;;
52186;SDS011;38161;53.020;6.598;2022-08-19T13:34:36;10.50;;;8.50;;
52186;SDS011;38161;53.020;6.598;2022-08-19T13:39:29;11.93;;;10.02;;
52186;SDS011;38161;53.020;6.598;2022-08-19T13:41:57;15.38;;;11.93;;
52186;SDS011;38161;53.020;6.598;2022-08-19T13:44:24;14.75;;;12.68;;
52186;SDS011;38161;53.020;6.598;2022-08-19T13:46:51;21.13;;;16.67;;
52186;SDS011;38161;53.020;6.598;2022-08-19T13:49:18;22.05;;;17.63;;
52186;SDS011;38161;53.020;6.598;2022-08-19T13:51:45;19.75;;;15.73;;
52186;SDS011;38161;53.020;6.598;2022-08-19T13:54:11;21.92;;;16.77;;
52186;SDS011;38161;53.020;6.598;2022-08-19T13:56:42;17.48;;;14.38;;
52186;SDS011;38161;53.020;6.598;2022-08-19T13:59:09;19.85;;;15.35;;
52186;SDS011;38161;53.020;6.598;2022-08-19T14:01:35;20.65;;;15.95;;
52186;SDS011;38161;53.020;6.598;2022-08-19T14:04:02;18.65;;;15.77;;
52186;SDS011;38161;53.020;6.598;2022-08-19T14:06:28;20.38;;;16.55;;
52186;SDS011;38161;53.020;6.598;2022-08-19T14:11:20;18.75;;;15.27;;
52186;SDS011;38161;53.020;6.598;2022-08-19T14:13:48;18.92;;;14.90;;
52186;SDS011;38161;53.020;6.598;2022-08-19T14:16:14;20.30;;;14.90;;
52186;SDS011;38161;53.020;6.598;2022-08-19T14:18:41;19.83;;;14.95;;
52186;SDS011;38161;53.020;6.598;2022-08-19T14:21:08;17.90;;;13.88;;
52186;SDS011;38161;53.020;6.598;2022-08-19T14:23:40;16.73;;;13.25;;
52186;SDS011;38161;53.020;6.598;2022-08-19T14:28:32;16.23;;;12.40;;
52186;SDS011;38161;53.020;6.598;2022-08-19T14:33:24;14.90;;;11.80;;
52186;SDS011;38161;53.020;6.598;2022-08-19T14:38:16;14.98;;;11.07;;
52186;SDS011;38161;53.020;6.598;2022-08-19T14:40:43;15.63;;;11.55;;
52186;SDS011;38161;53.020;6.598;2022-08-19T14:43:10;18.10;;;12.27;;
52186;SDS011;38161;53.020;6.598;2022-08-19T14:45:37;16.48;;;12.85;;
52186;SDS011;38161;53.020;6.598;2022-08-19T14:48:04;16.75;;;12.90;;
52186;SDS011;38161;53.020;6.598;2022-08-19T14:50:32;17.00;;;13.27;;
52186;SDS011;38161;53.020;6.598;2022-08-19T14:52:59;18.27;;;13.98;;
52186;SDS011;38161;53.020;6.598;2022-08-19T14:55:29;16.15;;;12.20;;
52186;SDS011;38161;53.020;6.598;2022-08-19T14:57:55;15.60;;;12.35;;
52186;SDS011;38161;53.020;6.598;2022-08-19T15:00:21;14.93;;;11.02;;
52186;SDS011;38161;53.020;6.598;2022-08-19T15:02:48;11.18;;;9.00;;
52186;SDS011;38161;53.020;6.598;2022-08-19T15:05:15;10.43;;;7.70;;
52186;SDS011;38161;53.020;6.598;2022-08-19T15:07:41;10.52;;;8.00;;
52186;SDS011;38161;53.020;6.598;2022-08-19T15:10:08;10.88;;;8.38;;
52186;SDS011;38161;53.020;6.598;2022-08-19T15:12:35;10.65;;;8.10;;
52186;SDS011;38161;53.020;6.598;2022-08-19T15:15:05;9.77;;;8.13;;
52186;SDS011;38161;53.020;6.598;2022-08-19T15:17:37;10.82;;;9.13;;
52186;SDS011;38161;53.020;6.598;2022-08-19T15:20:05;11.27;;;9.10;;
52186;SDS011;38161;53.020;6.598;2022-08-19T15:22:31;14.63;;;10.50;;
52186;SDS011;38161;53.020;6.598;2022-08-19T15:27:23;14.32;;;11.50;;
52186;SDS011;38161;53.020;6.598;2022-08-19T15:32:14;15.75;;;10.50;;
52186;SDS011;38161;53.020;6.598;2022-08-19T15:37:06;15.63;;;11.82;;
52186;SDS011;38161;53.020;6.598;2022-08-19T15:41:58;14.55;;;10.40;;
52186;SDS011;38161;53.020;6.598;2022-08-19T15:44:27;11.88;;;8.60;;
52186;SDS011;38161;53.020;6.598;2022-08-19T15:46:54;10.98;;;7.60;;
52186;SDS011;38161;53.020;6.598;2022-08-19T15:51:46;7.90;;;6.18;;
52186;SDS011;38161;53.020;6.598;2022-08-19T15:54:14;8.63;;;5.78;;
52186;SDS011;38161;53.020;6.598;2022-08-19T15:56:45;7.75;;;4.40;;
52186;SDS011;38161;53.020;6.598;2022-08-19T15:59:30;6.25;;;4.57;;
52186;SDS011;38161;53.020;6.598;2022-08-19T16:02:17;5.75;;;4.13;;